Time;durP1;ratioP1;P1;durP2;ratioP2;P2;SDS_P1;SDS_P2;PMS_P1;PMS_P2;Temp;Humidity;BMP_temperature;BMP_pressure;BME280_temperature;BME280_humidity;BME280_pressure;Samples;Min_cycle;Max_cycle;Signal;HPM_P1;HPM_P2
2023/07/03 12:30:07;;;;;;;;;;;;;;;23.97;37.02;99602.41;1077803;54;21050;-87
2023/07/03 12:35:48;;;;;;;;;;;;;;;24.12;37.38;99610.06;1076575;54;20233;31
2023/07/03 12:53:42;;;;;;;;;;;;;;;23.66;37.16;99609.16;1075454;54;20751;-87
2023/07/03 13:15:36;;;;;;;;;;;;;;;23.73;37.03;99604.38;1072354;54;19942;-87
2023/07/03 14:46:35;;;;;;;;;;;;;;;24.54;36.96;99581.53;1086800;54;21828;-85
2023/07/03 14:47:36;;;;;;;;;;;;;;;24.56;37.23;99584.84;1087189;47;19950;-83
2023/07/03 14:48:39;;;;;;;;;;;;;;;24.70;36.75;99590.03;1087403;54;20752;-87
2023/07/03 14:49:40;;;;;;;;;;;;;;;24.98;36.14;99585.53;1087465;46;19963;-87
2023/07/03 14:51:50;;;;;;;;;;;;;;;25.05;36.20;99581.50;1087755;39;20845;-85
2023/07/03 14:54:19;;;;;;;;;;;;;;;25.13;36.07;99576.72;1080920;54;19926;-91
2023/07/03 15:00:45;;;;;;;;;;;;;;;25.32;36.06;99578.03;1080169;54;19926;-89
2023/07/03 15:01:52;;;;;;;;;;;;;;;25.48;35.71;99578.25;1077464;47;20816;-86
2023/07/03 15:02:59;;;;;;;;;;;;;;;25.66;35.48;99575.19;1071978;54;19942;31
2023/07/03 15:04:00;;;;;;;;;;;;;;;25.58;35.59;99572.91;1088245;46;21153;-86
2023/07/03 15:06:14;;;;;;;;;;;;;;;25.54;35.40;99578.09;1088098;54;19946;-87
2023/07/03 15:07:15;;;;;;;;;;;;;;;25.86;34.98;99579.25;1087520;47;19939;-87
2023/07/03 15:08:19;;;;;;;;;;;;;;;25.95;34.70;99572.22;1087705;54;19967;-86
2023/07/03 15:09:19;;;;;;;;;;;;;;;25.88;34.59;99566.13;1087273;54;19942;-87
2023/07/03 15:10:23;;;;;;;;;;;;;;;25.97;34.43;99564.59;1087248;47;19967;-86
2023/07/03 15:11:24;;;;;;;;;;;;;;;25.82;34.38;99558.94;1087198;47;19942;-86
2023/07/03 15:12:27;;;;;;;;;;;;;;;25.72;35.12;99564.28;1086972;47;19939;-87
2023/07/03 15:13:28;;;;;;;;;;;;;;;25.77;34.64;99565.19;1087486;39;21188;-85
2023/07/03 15:14:31;;;;;;;;;;;;;;;25.60;35.29;99565.25;1087302;54;19946;-85
2023/07/03 15:15:35;;;;;;;;;;;;;;;25.53;35.54;99565.47;1098874;39;20665;-87
2023/07/03 15:16:36;;;;;;;;;;;;;;;25.57;35.36;99562.22;1087520;54;19942;-87
2023/07/03 15:17:46;;;;;;;;;;;;;;;25.45;35.78;99557.72;1091471;39;20819;-86
2023/07/03 15:18:49;;;;;;;;;;;;;;;25.20;36.05;99556.28;1087501;46;19966;-85
2023/07/03 15:21:06;;;;;;;;;;;;;;;25.08;36.31;99556.41;1087902;54;19942;-86
2023/07/03 15:22:08;;;;;;;;;;;;;;;24.92;36.54;99555.34;1091460;39;20172;-87
2023/07/03 15:23:14;;;;;;;;;;;;;;;24.77;37.11;99546.94;1087578;47;19994;-88
2023/07/03 15:24:20;;;;;;;;;;;;;;;24.75;37.12;99555.38;1087582;47;19942;-87
2023/07/03 15:26:28;;;;;;;;;;;;;;;24.57;37.43;99551.00;1087198;54;19946;-86
2023/07/03 15:27:30;;;;;;;;;;;;;;;24.87;36.80;99540.78;1087599;47;20963;-88
2023/07/03 15:29:35;;;;;;;;;;;;;;;24.74;36.71;99542.81;1087696;54;19941;-87
2023/07/03 15:30:38;;;;;;;;;;;;;;;24.96;36.60;99535.72;1087479;47;20009;-87
2023/07/03 15:31:41;;;;;;;;;;;;;;;24.96;36.34;99538.47;1087534;54;19943;-88
2023/07/03 15:35:17;;;;;;;;;;;;;;;25.12;36.37;99536.78;1083243;54;19930;-88
2023/07/03 15:37:43;;;;;;;;;;;;;;;24.82;36.73;99538.81;1083476;54;19942;-86
2023/07/03 15:38:44;;;;;;;;;;;;;;;24.69;37.16;99537.25;1086977;47;19975;-89
2023/07/03 15:39:48;;;;;;;;;;;;;;;24.94;36.84;99529.69;1087526;54;19943;-87
2023/07/03 15:40:51;;;;;;;;;;;;;;;24.93;37.14;99534.34;1087527;46;19942;-88
2023/07/03 15:41:55;;;;;;;;;;;;;;;24.60;37.52;99539.59;1087784;47;19926;-87
2023/07/03 15:45:14;;;;;;;;;;;;;;;24.40;37.79;99536.53;1079222;54;19966;31
2023/07/03 15:46:19;;;;;;;;;;;;;;;24.39;37.56;99538.41;1093228;39;22062;31
2023/07/03 15:47:29;;;;;;;;;;;;;;;24.42;37.49;99540.66;1088999;46;19923;-87
2023/07/03 15:51:15;;;;;;;;;;;;;;;24.41;37.89;99539.00;1071792;46;19946;31
2023/07/03 15:57:39;;;;;;;;;;;;;;;24.97;36.87;99531.91;1074356;39;21268;31
2023/07/03 15:58:50;;;;;;;;;;;;;;;25.06;36.80;99522.19;1071332;46;20812;31
2023/07/03 16:01:05;;;;;;;;;;;;;;;24.58;37.67;99522.59;1078000;54;20740;31
2023/07/03 16:02:09;;;;;;;;;;;;;;;24.60;37.68;99517.72;1076573;47;19954;-90
2023/07/03 16:04:22;;;;;;;;;;;;;;;24.75;37.25;99517.13;1071449;54;19943;31
2023/07/03 16:05:23;;;;;;;;;;;;;;;24.67;37.31;99513.97;1087873;47;19944;-88
2023/07/03 16:06:36;;;;;;;;;;;;;;;24.68;37.68;99516.47;1087732;46;19961;-87
2023/07/03 16:07:37;;;;;;;;;;;;;;;24.77;37.37;99506.78;1087739;46;19939;-90
2023/07/03 16:08:41;;;;;;;;;;;;;;;24.73;37.36;99511.09;1087549;47;19983;-88
2023/07/03 16:10:46;;;;;;;;;;;;;;;24.58;37.65;99519.03;1087399;54;19983;-88
2023/07/03 16:11:50;;;;;;;;;;;;;;;24.54;37.65;99517.91;1087875;47;19931;-85
2023/07/03 16:12:59;;;;;;;;;;;;;;;24.60;37.30;99517.72;1087938;54;20548;-88
2023/07/03 16:14:02;;;;;;;;;;;;;;;24.49;37.44;99515.06;1101169;39;20578;-90
2023/07/03 16:15:06;;;;;;;;;;;;;;;24.50;37.59;99523.03;1087945;54;20022;-87
2023/07/03 16:16:08;;;;;;;;;;;;;;;24.40;37.56;99510.03;1087911;47;20013;-89
2023/07/03 16:17:11;;;;;;;;;;;;;;;24.59;37.33;99512.50;1087856;54;19943;-88
2023/07/03 16:18:12;;;;;;;;;;;;;;;24.51;37.67;99515.66;1088420;47;19953;-90
2023/07/03 16:20:18;;;;;;;;;;;;;;;24.29;37.89;99511.78;1088771;54;19919;-86
2023/07/03 16:21:19;;;;;;;;;;;;;;;24.48;37.64;99516.97;1088020;54;20266;-93
2023/07/03 16:23:24;;;;;;;;;;;;;;;24.58;37.04;99516.28;1088169;54;19918;-88
2023/07/03 16:24:25;;;;;;;;;;;;;;;24.53;37.16;99510.78;1087960;54;20010;-87
2023/07/03 16:25:29;;;;;;;;;;;;;;;24.60;37.13;99508.69;1087929;54;19942;-89
2023/07/03 16:28:55;;;;;;;;;;;;;;;24.53;37.11;99510.78;1087951;54;19998;-91
2023/07/03 16:31:11;;;;;;;;;;;;;;;24.42;36.95;99507.88;1087565;54;19942;-89
2023/07/03 16:33:36;;;;;;;;;;;;;;;24.48;36.92;99507.94;1085416;54;19990;-89
2023/07/03 16:35:56;;;;;;;;;;;;;;;24.42;37.17;99502.41;1087072;54;19942;-88
2023/07/03 16:42:32;;;;;;;;;;;;;;;24.49;37.31;99507.72;1077804;54;19931;31
2023/07/03 16:49:16;;;;;;;;;;;;;;;24.40;38.03;99493.63;1074536;54;20692;31
2023/07/03 17:01:11;;;;;;;;;;;;;;;23.93;39.31;99499.41;1087915;54;20666;-89
2023/07/03 17:02:12;;;;;;;;;;;;;;;24.04;38.88;99495.81;1088215;47;20001;-89
2023/07/03 17:03:16;;;;;;;;;;;;;;;23.97;39.14;99501.41;1088554;54;19950;-89
2023/07/03 17:04:17;;;;;;;;;;;;;;;23.86;39.57;99505.00;1088352;46;19990;-90
2023/07/03 17:05:21;;;;;;;;;;;;;;;23.91;39.57;99501.53;1088194;54;19943;-89
2023/07/03 17:06:25;;;;;;;;;;;;;;;24.04;39.05;99500.44;1087975;47;19929;-88
2023/07/03 17:07:28;;;;;;;;;;;;;;;24.11;39.24;99501.09;1088426;54;19966;-88
2023/07/03 17:08:30;;;;;;;;;;;;;;;24.12;39.36;99508.22;1089798;39;21032;-89
2023/07/03 17:10:42;;;;;;;;;;;;;;;23.82;39.82;99520.22;1088483;54;19941;-87
2023/07/03 17:11:45;;;;;;;;;;;;;;;23.79;40.10;99507.06;1088451;46;20031;-88
2023/07/03 17:12:46;;;;;;;;;;;;;;;23.71;40.12;99513.75;1091296;39;21122;-89
2023/07/03 17:55:00;;;;;;;;;;;;;;;22.95;44.33;99500.25;1087619;54;19956;-89
2023/07/03 17:56:04;;;;;;;;;;;;;;;22.94;44.56;99507.56;1087960;54;19942;-87
2023/07/03 17:57:05;;;;;;;;;;;;;;;22.94;44.45;99504.03;1087893;47;19943;-88
2023/07/03 17:58:08;;;;;;;;;;;;;;;22.99;44.30;99504.13;1092896;39;20250;-86
2023/07/03 17:59:09;;;;;;;;;;;;;;;23.04;44.34;99498.78;1087835;54;19982;-87
2023/07/03 18:00:13;;;;;;;;;;;;;;;22.97;44.54;99504.38;1087777;46;19973;-88
2023/07/03 18:01:16;;;;;;;;;;;;;;;22.88;44.80;99498.44;1087565;46;19981;-86
2023/07/03 18:02:17;;;;;;;;;;;;;;;22.85;45.06;99498.94;1087616;54;19950;-87
2023/07/03 18:03:22;;;;;;;;;;;;;;;22.95;44.59;99501.06;1087650;54;19954;-85
2023/07/03 18:04:25;;;;;;;;;;;;;;;23.06;44.53;99502.94;1087406;47;19942;-88
2023/07/03 18:05:26;;;;;;;;;;;;;;;23.03;44.37;99497.94;1087333;47;19955;-86
2023/07/03 18:06:30;;;;;;;;;;;;;;;22.92;44.71;99497.97;1088970;39;21198;-84
2023/07/03 18:07:30;;;;;;;;;;;;;;;22.99;44.59;99501.41;1087535;54;20026;-86
2023/07/03 18:08:34;;;;;;;;;;;;;;;23.05;44.67;99494.97;1087558;54;19949;-87
2023/07/03 18:09:37;;;;;;;;;;;;;;;22.96;44.72;99497.25;1087288;47;20748;-86
2023/07/03 18:10:41;;;;;;;;;;;;;;;22.97;44.80;99500.81;1087342;47;19950;-86
2023/07/03 18:11:44;;;;;;;;;;;;;;;22.80;45.15;99500.72;1087407;46;19967;-86
2023/07/03 18:12:45;;;;;;;;;;;;;;;22.92;45.01;99500.72;1087320;47;20018;-86
2023/07/03 18:13:48;;;;;;;;;;;;;;;22.92;45.07;99506.97;1088215;39;20902;-87
2023/07/03 18:14:49;;;;;;;;;;;;;;;22.72;45.19;99501.91;1087284;47;19946;-86
2023/07/03 18:15:52;;;;;;;;;;;;;;;22.68;45.67;99508.88;1087320;47;19966;-88
2023/07/03 18:16:53;;;;;;;;;;;;;;;22.67;45.56;99512.72;1087281;54;19966;-86
2023/07/03 18:17:56;;;;;;;;;;;;;;;22.68;45.61;99515.19;1087142;47;19943;-88
2023/07/03 18:18:57;;;;;;;;;;;;;;;22.58;45.91;99518.50;1087265;54;19959;-85
2023/07/03 18:20:03;;;;;;;;;;;;;;;22.47;46.39;99527.50;1087262;47;19942;-87
2023/07/03 18:21:04;;;;;;;;;;;;;;;22.43;46.53;99524.41;1087444;54;19942;-85
2023/07/03 18:22:07;;;;;;;;;;;;;;;22.54;46.37;99524.66;1087355;47;19954;-85
2023/07/03 18:23:08;;;;;;;;;;;;;;;22.58;46.27;99526.66;1087371;54;19965;-85
2023/07/03 18:24:12;;;;;;;;;;;;;;;22.51;46.24;99523.22;1087566;54;20015;-86
2023/07/03 18:25:13;;;;;;;;;;;;;;;22.56;46.31;99526.09;1087341;47;19991;-86
2023/07/03 18:26:19;;;;;;;;;;;;;;;22.53;46.30;99515.66;1087215;47;19967;-86
2023/07/03 18:27:20;;;;;;;;;;;;;;;22.69;46.13;99521.44;1087415;47;19943;-86
2023/07/03 18:28:23;;;;;;;;;;;;;;;22.70;46.14;99523.09;1087367;54;19942;-86
2023/07/03 18:29:27;;;;;;;;;;;;;;;22.73;45.88;99522.66;1087345;46;19958;-87
2023/07/03 18:30:30;;;;;;;;;;;;;;;22.72;45.84;99519.06;1090246;39;20661;-86
2023/07/03 18:31:31;;;;;;;;;;;;;;;22.68;45.87;99517.06;1087345;47;19943;-88
2023/07/03 18:32:35;;;;;;;;;;;;;;;22.60;46.08;99515.53;1087339;47;19942;-87
2023/07/03 18:33:35;;;;;;;;;;;;;;;22.63;46.04;99517.78;1090254;39;20891;-85
2023/07/03 18:34:39;;;;;;;;;;;;;;;22.58;46.36;99513.03;1087391;54;19949;-87
2023/07/03 18:35:39;;;;;;;;;;;;;;;22.49;46.86;99503.56;1087260;47;19966;-87
2023/07/03 18:36:43;;;;;;;;;;;;;;;22.37;47.06;99521.78;1087402;47;19967;-88
2023/07/03 18:37:44;;;;;;;;;;;;;;;22.26;47.40;99520.69;1087254;47;19942;-85
2023/07/03 18:38:48;;;;;;;;;;;;;;;22.21;47.67;99521.41;1090290;39;20821;-87
2023/07/03 18:39:51;;;;;;;;;;;;;;;22.28;47.10;99521.28;1088995;31;20691;-86
2023/07/03 18:40:52;;;;;;;;;;;;;;;22.25;47.42;99528.03;1087298;54;19966;-87
2023/07/03 18:41:58;;;;;;;;;;;;;;;22.34;46.91;99525.78;1087188;46;20955;-87
2023/07/03 18:42:59;;;;;;;;;;;;;;;22.25;47.46;99529.91;1089709;31;20694;-87
2023/07/03 18:44:02;;;;;;;;;;;;;;;22.24;47.51;99531.00;1087364;54;19950;-86
2023/07/03 18:45:03;;;;;;;;;;;;;;;22.11;47.68;99524.69;1087356;47;19965;-85
2023/07/03 18:46:07;;;;;;;;;;;;;;;22.08;48.05;99524.34;1087280;54;19943;-83
2023/07/03 18:47:11;;;;;;;;;;;;;;;22.08;47.92;99533.31;1087474;54;19946;-85
2023/07/03 18:48:15;;;;;;;;;;;;;;;22.09;47.78;99528.72;1087505;54;19966;-85
2023/07/03 18:49:15;;;;;;;;;;;;;;;21.99;48.46;99531.19;1087548;54;19942;-84
2023/07/03 18:50:19;;;;;;;;;;;;;;;22.07;48.16;99534.38;1087516;54;21045;-86
2023/07/03 18:51:22;;;;;;;;;;;;;;;22.10;48.11;99533.13;1087538;54;19969;-85
2023/07/03 18:52:26;;;;;;;;;;;;;;;22.03;48.24;99532.34;1087486;54;19942;-86
2023/07/03 18:53:27;;;;;;;;;;;;;;;22.12;48.15;99539.13;1087351;47;19949;-85
2023/07/03 18:54:30;;;;;;;;;;;;;;;22.13;47.92;99535.34;1088634;39;21121;-84
2023/07/03 18:55:31;;;;;;;;;;;;;;;22.13;48.25;99536.19;1087177;54;19942;-85
2023/07/03 18:56:35;;;;;;;;;;;;;;;22.11;48.05;99534.75;1087245;47;19954;-87
2023/07/03 18:57:41;;;;;;;;;;;;;;;22.11;47.98;99545.63;1087329;54;19965;-87
2023/07/03 18:58:41;;;;;;;;;;;;;;;22.09;48.52;99547.78;1087524;54;19954;-87
2023/07/03 18:59:46;;;;;;;;;;;;;;;22.02;48.67;99541.59;1087479;54;19946;-85
2023/07/03 19:00:46;;;;;;;;;;;;;;;22.12;48.39;99542.69;1087249;54;19946;-86
2023/07/03 19:01:50;;;;;;;;;;;;;;;22.02;48.81;99545.16;1087206;47;19946;-85
2023/07/03 19:02:50;;;;;;;;;;;;;;;22.01;48.61;99545.41;1087303;54;19943;-86
2023/07/03 19:03:54;;;;;;;;;;;;;;;21.99;49.26;99545.59;1087177;47;19966;-84
2023/07/03 19:04:55;;;;;;;;;;;;;;;21.93;49.40;99555.53;1087283;54;20077;-86
2023/07/03 19:06:00;;;;;;;;;;;;;;;21.80;49.53;99556.53;1087467;54;19949;-87
2023/07/03 19:07:00;;;;;;;;;;;;;;;21.83;49.60;99554.44;1087525;54;19942;-84
2023/07/03 19:08:05;;;;;;;;;;;;;;;21.85;49.55;99557.75;1087453;54;20653;-83
2023/07/03 19:09:06;;;;;;;;;;;;;;;21.76;49.82;99554.53;1087466;54;19965;-85
2023/07/03 19:10:10;;;;;;;;;;;;;;;21.76;50.02;99559.97;1087221;47;19943;-85
2023/07/03 19:11:11;;;;;;;;;;;;;;;21.65;50.55;99554.25;1088173;39;20546;-86
2023/07/03 19:12:17;;;;;;;;;;;;;;;21.68;50.65;99563.00;1087253;46;19973;-85
2023/07/03 19:13:20;;;;;;;;;;;;;;;21.60;51.08;99562.28;1087500;54;19949;-86
2023/07/03 19:14:23;;;;;;;;;;;;;;;21.50;51.29;99554.59;1087198;46;19946;-85
2023/07/03 19:15:24;;;;;;;;;;;;;;;21.49;51.61;99565.72;1087237;54;19942;-85
2023/07/03 19:16:28;;;;;;;;;;;;;;;21.57;51.25;99551.00;1087404;54;19942;-85
2023/07/03 19:17:29;;;;;;;;;;;;;;;21.51;51.54;99559.00;1087151;54;19946;-86
2023/07/03 19:18:33;;;;;;;;;;;;;;;21.56;51.66;99554.75;1087320;54;19942;-84
2023/07/03 19:19:33;;;;;;;;;;;;;;;21.53;51.79;99555.22;1087247;47;19942;-85
2023/07/03 19:20:37;;;;;;;;;;;;;;;21.53;51.88;99558.78;1087138;54;19943;-86
2023/07/03 19:21:40;;;;;;;;;;;;;;;21.51;51.83;99552.72;1087601;54;19965;-84
2023/07/03 19:22:43;;;;;;;;;;;;;;;21.53;51.69;99552.50;1087391;54;19942;-85
2023/07/03 19:23:44;;;;;;;;;;;;;;;21.59;51.48;99555.16;1087526;54;19950;-85
2023/07/03 19:24:47;;;;;;;;;;;;;;;21.58;51.73;99558.94;1087513;54;19954;-89
2023/07/03 19:25:50;;;;;;;;;;;;;;;21.40;52.51;99562.47;1087502;54;19943;-84
2023/07/03 19:26:53;;;;;;;;;;;;;;;21.41;52.21;99555.16;1087452;54;19998;-83
2023/07/03 19:27:54;;;;;;;;;;;;;;;21.49;52.30;99557.56;1087244;47;19951;-83
2023/07/03 19:29:00;;;;;;;;;;;;;;;21.33;52.48;99554.41;1087281;46;19942;-85
2023/07/03 19:30:01;;;;;;;;;;;;;;;21.44;52.08;99560.16;1087378;54;19950;-85
2023/07/03 19:31:04;;;;;;;;;;;;;;;21.45;52.26;99554.47;1087237;47;19949;-85
2023/07/03 19:32:05;;;;;;;;;;;;;;;21.37;52.27;99552.06;1087235;47;19969;-84
2023/07/03 19:33:09;;;;;;;;;;;;;;;21.50;51.86;99548.34;1087249;47;19942;-87
2023/07/03 19:34:10;;;;;;;;;;;;;;;21.37;52.33;99543.06;1087226;54;19975;-86
2023/07/03 19:35:14;;;;;;;;;;;;;;;21.35;52.45;99549.56;1087456;54;19975;-84
2023/07/03 19:36:16;;;;;;;;;;;;;;;21.50;51.86;99545.63;1087377;54;19943;-86
2023/07/03 19:37:20;;;;;;;;;;;;;;;21.56;51.70;99552.88;1087377;54;19942;-84
2023/07/03 19:38:20;;;;;;;;;;;;;;;21.50;52.23;99542.91;1087461;54;19943;-85
2023/07/03 19:39:24;;;;;;;;;;;;;;;;;;1087412;54;19949;-85
2023/07/03 19:40:24;;;;;;;;;;;;;;;21.62;51.77;99553.88;1087460;54;20023;-86
2023/07/03 19:41:28;;;;;;;;;;;;;;;21.56;51.70;99550.16;1087179;47;19992;-82
2023/07/03 19:42:29;;;;;;;;;;;;;;;21.42;51.78;99557.66;1087220;54;19965;-83
2023/07/03 19:43:32;;;;;;;;;;;;;;;21.38;52.01;99553.75;1087400;54;19949;-84
2023/07/03 19:44:36;;;;;;;;;;;;;;;21.31;52.44;99551.09;1087504;54;19966;-83
2023/07/03 19:45:40;;;;;;;;;;;;;;;21.38;52.48;99556.47;1087240;46;20020;-85
2023/07/03 19:46:41;;;;;;;;;;;;;;;21.33;52.34;99562.56;1087305;54;19943;-87
2023/07/03 19:47:44;;;;;;;;;;;;;;;21.35;52.31;99560.44;1087155;47;19954;-87
2023/07/03 19:48:48;;;;;;;;;;;;;;;21.35;52.45;99560.44;1087115;47;19945;-86
2023/07/03 19:49:49;;;;;;;;;;;;;;;21.33;52.36;99564.44;1087637;39;20279;-85
2023/07/03 19:50:53;;;;;;;;;;;;;;;21.22;52.50;99570.63;1087301;54;19942;-85
2023/07/03 19:51:53;;;;;;;;;;;;;;;21.40;52.48;99564.38;1087177;47;19938;-85
2023/07/03 19:52:57;;;;;;;;;;;;;;;21.40;52.15;99572.53;1087222;54;19954;-86
2023/07/03 19:54:01;;;;;;;;;;;;;;;21.37;52.16;99575.69;1087085;47;19965;-84
2023/07/03 19:55:02;;;;;;;;;;;;;;;21.33;52.60;99578.88;1087175;47;19950;-86
2023/07/03 19:56:06;;;;;;;;;;;;;;;21.22;52.96;99576.91;1087065;47;19969;-85
2023/07/03 19:57:07;;;;;;;;;;;;;;;21.17;52.86;99574.88;1087315;54;19943;-84
2023/07/03 19:58:10;;;;;;;;;;;;;;;21.08;52.98;99581.66;1087130;47;19938;-83
2023/07/03 19:59:12;;;;;;;;;;;;;;;21.12;53.08;99577.44;1087279;54;19973;-86
2023/07/03 20:00:19;;;;;;;;;;;;;;;21.08;53.04;99578.09;1087266;47;19966;-84
2023/07/03 20:01:20;;;;;;;;;;;;;;;21.09;53.19;99582.50;1087279;54;19946;-85
2023/07/03 20:02:23;;;;;;;;;;;;;;;20.97;53.75;99585.13;1087466;54;19943;-85
2023/07/03 20:03:24;;;;;;;;;;;;;;;21.01;53.39;99581.72;1087228;47;19943;-86
2023/07/03 20:04:28;;;;;;;;;;;;;;;20.99;53.38;99583.03;1087265;47;19943;-85
2023/07/03 20:05:33;;;;;;;;;;;;;;;20.94;53.94;99583.69;1087127;47;19942;-85
2023/07/03 20:06:36;;;;;;;;;;;;;;;20.91;54.04;99580.59;1087211;54;20030;-86
2023/07/03 20:07:37;;;;;;;;;;;;;;;20.97;53.58;99582.41;1087215;47;20004;-85
2023/07/03 20:08:41;;;;;;;;;;;;;;;20.94;53.83;99582.84;1087267;47;19943;-84
2023/07/03 20:09:42;;;;;;;;;;;;;;;20.89;53.86;99580.81;1087338;54;19942;-85
2023/07/03 20:10:46;;;;;;;;;;;;;;;20.91;53.83;99581.41;1087320;47;19977;-84
2023/07/03 20:11:47;;;;;;;;;;;;;;;20.97;53.56;99582.41;1087798;47;19933;-85
2023/07/03 20:12:52;;;;;;;;;;;;;;;21.02;53.55;99579.84;1087825;46;19946;-88
2023/07/03 20:13:55;;;;;;;;;;;;;;;21.03;53.53;99579.63;1087761;47;19926;-85
2023/07/03 20:14:56;;;;;;;;;;;;;;;21.01;53.86;99584.44;1087758;54;19943;-84
2023/07/03 20:16:05;;;;;;;;;;;;;;;21.08;53.59;99583.53;1087686;47;19950;-88
2023/07/03 20:17:09;;;;;;;;;;;;;;;21.03;53.64;99585.06;1087649;54;20021;-85
2023/07/03 20:18:10;;;;;;;;;;;;;;;21.00;53.95;99596.38;1087880;54;19994;-85
2023/07/03 20:19:13;;;;;;;;;;;;;;;20.89;54.44;99594.38;1087575;46;20717;-84
2023/07/03 20:20:14;;;;;;;;;;;;;;;20.80;54.69;99585.72;1087749;54;19942;-88
2023/07/03 20:21:18;;;;;;;;;;;;;;;20.84;54.43;99591.53;1087850;54;19942;-86
2023/07/03 20:22:18;;;;;;;;;;;;;;;20.80;54.52;99582.16;1087594;54;19942;-83
2023/07/03 20:23:23;;;;;;;;;;;;;;;20.81;54.42;99589.25;1087542;47;19941;-85
2023/07/03 20:24:26;;;;;;;;;;;;;;;20.79;54.63;99585.91;1087423;54;19959;-88
2023/07/03 20:25:27;;;;;;;;;;;;;;;20.79;54.65;99585.91;1087869;54;19965;-85
2023/07/03 20:26:31;;;;;;;;;;;;;;;20.84;54.44;99588.81;1087805;54;19966;-84
2023/07/03 20:27:32;;;;;;;;;;;;;;;20.71;54.72;99582.41;1087461;47;19942;-87
2023/07/03 20:28:37;;;;;;;;;;;;;;;20.69;54.57;99579.06;1087409;47;19938;-85
2023/07/03 20:29:38;;;;;;;;;;;;;;;20.70;54.69;99580.75;1087688;54;19995;-86
2023/07/03 20:30:48;;;;;;;;;;;;;;;20.61;54.65;99587.50;1087686;54;19943;-87
2023/07/03 20:31:54;;;;;;;;;;;;;;;20.65;55.00;99587.88;1087405;47;19994;-85
2023/07/03 20:32:55;;;;;;;;;;;;;;;20.65;54.89;99593.31;1087636;47;19969;-87
2023/07/03 20:33:58;;;;;;;;;;;;;;;20.67;54.52;99593.94;1087736;54;19942;-86
2023/07/03 20:34:59;;;;;;;;;;;;;;;20.62;54.69;99594.59;1087559;47;19942;-85
2023/07/03 20:36:03;;;;;;;;;;;;;;;20.73;54.68;99582.19;1087633;54;19942;-87
2023/07/03 20:37:04;;;;;;;;;;;;;;;20.60;54.71;99591.28;1087501;54;19995;-88
2023/07/03 20:38:07;;;;;;;;;;;;;;;20.58;54.58;99583.34;1087415;47;19962;-84
2023/07/03 20:39:08;;;;;;;;;;;;;;;20.62;54.53;99585.63;1087490;47;19966;-86
2023/07/03 20:40:12;;;;;;;;;;;;;;;20.53;54.99;99579.63;1087413;54;19942;-85
2023/07/03 20:41:14;;;;;;;;;;;;;;;20.53;54.94;99582.34;1087610;47;19951;-85
2023/07/03 20:42:18;;;;;;;;;;;;;;;20.53;54.84;99582.34;1087678;47;19946;-86
2023/07/03 20:43:19;;;;;;;;;;;;;;;20.62;54.75;99575.59;1090190;39;20174;-86
2023/07/03 20:44:22;;;;;;;;;;;;;;;20.53;55.01;99577.78;1087681;47;19943;-85
2023/07/03 20:45:25;;;;;;;;;;;;;;;20.48;55.09;99582.19;1087609;47;19946;-86
2023/07/03 20:46:29;;;;;;;;;;;;;;;20.57;54.72;99587.13;1087490;47;19954;-86
2023/07/03 20:47:32;;;;;;;;;;;;;;;20.54;54.54;99584.03;1087724;54;19942;-84
2023/07/03 20:48:37;;;;;;;;;;;;;;;20.50;54.67;99580.09;1087496;47;19943;-87
2023/07/03 20:49:38;;;;;;;;;;;;;;;20.54;54.80;99587.59;1087702;54;19946;-86
2023/07/03 20:50:49;;;;;;;;;;;;;;;20.44;54.94;99586.41;1087780;54;19947;-85
2023/07/03 20:51:53;;;;;;;;;;;;;;;20.47;54.93;99583.25;1087619;47;19950;-86
2023/07/03 20:53:09;;;;;;;;;;;;;;;20.45;54.82;99580.75;1087648;54;19930;-86
2023/07/03 20:54:21;;;;;;;;;;;;;;;20.39;55.11;99584.34;1087654;47;19994;-86
2023/07/03 20:55:35;;;;;;;;;;;;;;;20.38;55.06;99582.69;1087516;54;19963;-86
2023/07/03 20:56:36;;;;;;;;;;;;;;;20.44;55.09;99580.97;1087764;54;20033;-85
2023/07/03 20:57:40;;;;;;;;;;;;;;;20.42;55.14;99587.44;1087832;54;19943;-85
2023/07/03 20:58:41;;;;;;;;;;;;;;;20.42;54.98;99578.47;1087737;47;20347;-86
2023/07/03 20:59:44;;;;;;;;;;;;;;;20.40;55.06;99581.41;1087564;54;19950;-85
2023/07/03 21:00:45;;;;;;;;;;;;;;;20.36;55.46;99580.19;1087620;47;19965;-86
2023/07/03 21:01:48;;;;;;;;;;;;;;;20.30;55.53;99577.53;1087663;47;19943;-84
2023/07/03 21:02:52;;;;;;;;;;;;;;;20.31;55.35;99582.72;1087705;47;19942;-85
2023/07/03 21:03:58;;;;;;;;;;;;;;;20.34;55.47;99576.88;1087739;54;19949;-86
2023/07/03 21:04:59;;;;;;;;;;;;;;;20.31;55.78;99588.16;1087948;54;19938;-85
2023/07/03 21:06:02;;;;;;;;;;;;;;;20.33;55.25;99593.38;1087809;54;19947;-85
2023/07/03 21:07:03;;;;;;;;;;;;;;;20.23;56.04;99591.13;1087827;54;19949;-86
2023/07/03 21:08:06;;;;;;;;;;;;;;;20.20;56.09;99586.16;1087657;47;19943;-86
2023/07/03 21:09:07;;;;;;;;;;;;;;;20.25;55.50;99589.03;1087649;54;19986;-86
2023/07/03 21:10:11;;;;;;;;;;;;;;;20.17;56.27;99592.84;1087791;54;19950;-86
2023/07/03 21:11:13;;;;;;;;;;;;;;;20.18;56.14;99588.25;1087664;47;19950;-86
2023/07/03 21:12:16;;;;;;;;;;;;;;;20.23;55.94;99586.56;1087783;47;19950;-85
2023/07/03 21:13:17;;;;;;;;;;;;;;;20.19;56.05;99581.78;1087647;54;19942;-86
2023/07/03 21:14:21;;;;;;;;;;;;;;;20.21;55.69;99582.41;1087562;47;19962;-84
2023/07/03 21:15:22;;;;;;;;;;;;;;;20.24;55.76;99587.38;1087350;54;20012;-83
2023/07/03 21:16:26;;;;;;;;;;;;;;;20.26;55.41;99590.72;1087403;47;19938;-83
2023/07/03 21:17:27;;;;;;;;;;;;;;;20.20;55.75;99594.31;1087665;47;19958;-85
2023/07/03 21:18:33;;;;;;;;;;;;;;;20.27;55.32;99597.81;1087580;47;19998;-84
2023/07/03 21:19:36;;;;;;;;;;;;;;;20.20;55.92;99594.31;1088019;39;20272;-85
2023/07/03 21:20:37;;;;;;;;;;;;;;;20.26;55.41;99596.13;1087469;54;19959;-85
2023/07/03 21:21:41;;;;;;;;;;;;;;;20.24;55.91;99600.94;1087611;54;19981;-85
2023/07/03 21:22:41;;;;;;;;;;;;;;;20.24;55.66;99603.66;1087448;47;19965;-86
2023/07/03 21:23:46;;;;;;;;;;;;;;;20.20;55.97;99602.44;1087381;51;19976;-85
2023/07/03 21:24:50;;;;;;;;;;;;;;;20.14;56.47;99600.59;1087551;54;19935;-85
2023/07/03 21:25:51;;;;;;;;;;;;;;;20.14;56.09;99608.72;1087831;54;19943;-85
2023/07/03 21:26:54;;;;;;;;;;;;;;;20.16;56.14;99609.34;1087675;54;20021;-87
2023/07/03 21:27:55;;;;;;;;;;;;;;;20.17;55.87;99603.69;1087534;47;19950;-87
2023/07/03 21:28:58;;;;;;;;;;;;;;;20.18;55.78;99604.53;1087498;54;20352;-86
2023/07/03 21:29:59;;;;;;;;;;;;;;;20.18;56.01;99615.41;1088268;39;20172;-85
2023/07/03 21:31:02;;;;;;;;;;;;;;;20.19;56.13;99617.06;1087474;54;20031;-86
2023/07/03 21:32:04;;;;;;;;;;;;;;;20.16;55.91;99602.06;1087830;54;19943;-86
2023/07/03 21:33:07;;;;;;;;;;;;;;;20.14;55.96;99612.28;1087773;54;19942;-85
2023/07/03 21:34:12;;;;;;;;;;;;;;;20.02;56.49;99614.03;1087530;47;20011;-86
2023/07/03 21:35:15;;;;;;;;;;;;;;;20.07;56.58;99615.03;1087581;54;19942;-86
2023/07/03 21:36:18;;;;;;;;;;;;;;;20.03;56.26;99619.22;1087746;54;19942;-86
2023/07/03 21:37:23;;;;;;;;;;;;;;;20.02;56.67;99608.59;1088258;54;19938;-86
2023/07/03 21:38:23;;;;;;;;;;;;;;;19.92;56.87;99611.81;1088149;54;19966;-86
2023/07/03 21:39:27;;;;;;;;;;;;;;;19.86;56.94;99615.34;1088339;54;19955;-86
2023/07/03 21:40:28;;;;;;;;;;;;;;;19.91;56.94;99615.56;1088136;54;19998;-87
2023/07/03 21:41:32;;;;;;;;;;;;;;;19.95;56.70;99614.91;1088318;54;19990;-86
2023/07/03 21:42:33;;;;;;;;;;;;;;;19.98;57.00;99616.34;1088234;47;19961;-86
2023/07/03 21:43:37;;;;;;;;;;;;;;;20.02;56.25;99617.59;1088098;47;19930;-85
2023/07/03 21:44:37;;;;;;;;;;;;;;;19.98;56.76;99610.91;1088238;54;19954;-85
2023/07/03 21:45:41;;;;;;;;;;;;;;;19.90;56.72;99617.41;1088133;47;19942;-85
2023/07/03 21:46:42;;;;;;;;;;;;;;;19.88;56.81;99621.41;1088188;54;19954;-85
2023/07/03 21:47:48;;;;;;;;;;;;;;;19.90;56.67;99620.13;1088199;54;19973;-86
2023/07/03 21:48:50;;;;;;;;;;;;;;;19.80;57.36;99619.72;1088273;54;19956;-86
2023/07/03 21:49:56;;;;;;;;;;;;;;;19.72;57.73;99626.25;1088219;46;19942;-85
2023/07/03 21:50:57;;;;;;;;;;;;;;;19.67;57.88;99627.94;1088166;47;19966;-85
2023/07/03 21:52:01;;;;;;;;;;;;;;;19.69;57.51;99625.84;1088273;54;19926;-84
2023/07/03 21:53:02;;;;;;;;;;;;;;;19.66;57.49;99623.56;1088091;47;19990;-82